Time;durP1;ratioP1;P1;durP2;ratioP2;P2;SDS_P1;SDS_P2;PMS_P1;PMS_P2;Temp;Humidity;BMP_temperature;BMP_pressure;BME280_temperature;BME280_humidity;BME280_pressure;Samples;Min_cycle;Max_cycle;Signal;HPM_P1;HPM_P2
2022/06/26 00:01:21;;;;;;;4.93;2.17;;;17.80;99.90;;;;;;5064468;28;20064;-81
2022/06/26 00:03:47;;;;;;;4.78;2.30;;;17.70;99.90;;;;;;5066677;28;20056;-81
2022/06/26 00:06:12;;;;;;;7.32;2.97;;;17.70;99.90;;;;;;5066548;28;20033;-81
2022/06/26 00:08:38;;;;;;;4.97;1.85;;;17.60;99.90;;;;;;5066125;28;20669;-81
2022/06/26 00:11:04;;;;;;;7.63;2.90;;;17.50;99.90;;;;;;5064837;28;20485;-81
2022/06/26 00:13:30;;;;;;;6.85;2.25;;;17.50;99.90;;;;;;5065501;28;20445;-81
2022/06/26 00:15:56;;;;;;;4.75;1.95;;;17.50;99.90;;;;;;5082523;28;20529;-81
2022/06/26 00:18:22;;;;;;;5.55;2.08;;;17.40;99.90;;;;;;5066146;28;20135;-81
2022/06/26 00:20:48;;;;;;;7.55;2.05;;;17.40;99.90;;;;;;5064989;28;20519;-81
2022/06/26 00:23:14;;;;;;;8.35;3.05;;;17.40;99.90;;;;;;5082178;28;20045;-81
2022/06/26 00:25:40;;;;;;;6.70;2.40;;;17.30;99.90;;;;;;5063977;28;20084;-81
2022/06/26 00:28:06;;;;;;;5.70;1.73;;;17.30;99.90;;;;;;5048462;28;20040;-81
2022/06/26 00:30:31;;;;;;;7.70;2.17;;;17.30;99.90;;;;;;5080839;27;20111;-81
2022/06/26 00:32:57;;;;;;;4.50;2.17;;;17.20;99.90;;;;;;5065263;28;20048;-81
2022/06/26 00:35:23;;;;;;;4.68;1.77;;;17.20;99.90;;;;;;5064763;28;20041;-81
2022/06/26 00:37:49;;;;;;;7.03;3.10;;;17.20;99.90;;;;;;5063571;28;20041;-81
2022/06/26 00:40:16;;;;;;;4.63;2.67;;;17.10;99.90;;;;;;5066291;28;20398;-81
2022/06/26 00:42:42;;;;;;;8.40;2.50;;;17.10;99.90;;;;;;5061433;28;20100;-81
2022/06/26 00:45:08;;;;;;;10.60;2.47;;;17.20;99.90;;;;;;5063379;28;20498;-81
2022/06/26 00:47:35;;;;;;;5.88;2.30;;;17.10;99.90;;;;;;5063600;28;20045;-81
2022/06/26 00:50:00;;;;;;;4.22;2.75;;;17.10;99.90;;;;;;5064960;28;20549;-81
2022/06/26 00:52:27;;;;;;;9.73;2.50;;;17.10;99.90;;;;;;5064901;28;20044;-81
2022/06/26 00:54:54;;;;;;;11.23;3.30;;;17.10;99.90;;;;;;5065423;28;20045;-81
2022/06/26 00:57:21;;;;;;;9.35;2.42;;;17.10;99.90;;;;;;5059889;28;20201;-81
2022/06/26 00:59:47;;;;;;;6.15;2.17;;;17.00;99.90;;;;;;5065246;28;20045;-82
2022/06/26 01:02:14;;;;;;;8.48;1.80;;;17.00;99.90;;;;;;5065359;28;20036;-81
2022/06/26 01:04:39;;;;;;;4.53;2.00;;;16.90;99.90;;;;;;5049362;28;20424;-81
2022/06/26 01:07:06;;;;;;;3.97;2.42;;;16.90;99.90;;;;;;5066017;28;20047;-81
2022/06/26 01:09:33;;;;;;;5.43;2.30;;;16.90;99.90;;;;;;5065891;28;20052;-81
2022/06/26 01:11:59;;;;;;;5.72;2.05;;;16.80;99.90;;;;;;5066119;28;20028;-81
2022/06/26 01:14:25;;;;;;;5.72;2.70;;;16.80;99.90;;;;;;5063368;28;20123;-81
2022/06/26 01:16:51;;;;;;;6.72;2.22;;;16.80;99.90;;;;;;5065556;28;20045;-81
2022/06/26 01:19:19;;;;;;;5.68;2.55;;;16.80;99.90;;;;;;5058745;28;20053;-81
2022/06/26 01:21:45;;;;;;;5.38;2.38;;;16.80;99.90;;;;;;5062393;28;20048;-81
2022/06/26 01:24:11;;;;;;;6.90;2.90;;;16.80;99.90;;;;;;5065863;28;20052;-81
2022/06/26 01:26:39;;;;;;;6.90;1.88;;;16.80;99.90;;;;;;5061774;28;20052;-81
2022/06/26 01:29:05;;;;;;;5.75;1.88;;;16.70;99.90;;;;;;5063202;28;20126;-81
2022/06/26 01:31:34;;;;;;;7.55;2.05;;;16.70;99.90;;;;;;5065173;28;20869;-81
2022/06/26 01:34:08;;;;;;;6.05;2.53;;;16.70;99.90;;;;;;5079235;28;20045;-81
2022/06/26 01:36:35;;;;;;;6.40;1.80;;;16.70;99.90;;;;;;5064381;28;20051;-81
2022/06/26 01:39:00;;;;;;;9.23;2.30;;;16.70;99.90;;;;;;5063432;28;20166;-81
2022/06/26 01:41:27;;;;;;;4.90;2.88;;;16.70;99.90;;;;;;5063735;28;20045;-81
2022/06/26 01:43:52;;;;;;;6.55;2.85;;;16.60;99.90;;;;;;5064576;28;20124;-81
2022/06/26 01:46:20;;;;;;;10.98;4.03;;;16.70;99.90;;;;;;5046706;28;20044;-81
2022/06/26 01:48:46;;;;;;;14.40;2.40;;;16.60;99.90;;;;;;5062655;28;20045;-81
2022/06/26 01:51:13;;;;;;;5.65;2.15;;;16.50;99.90;;;;;;5064232;28;20507;-81
2022/06/26 01:53:38;;;;;;;8.30;2.60;;;16.50;99.90;;;;;;5065176;28;20087;-81
2022/06/26 01:56:05;;;;;;;7.90;2.03;;;16.50;99.90;;;;;;5061086;28;20048;-81
2022/06/26 01:58:32;;;;;;;5.20;2.30;;;16.50;99.90;;;;;;5064113;28;20048;-81
2022/06/26 02:00:59;;;;;;;8.25;2.47;;;16.40;99.90;;;;;;5062757;28;20033;-81
2022/06/26 02:03:25;;;;;;;4.78;2.17;;;16.40;99.90;;;;;;5064367;28;20032;-81
2022/06/26 02:05:51;;;;;;;3.45;2.15;;;16.40;99.90;;;;;;5080765;28;20440;-81
2022/06/26 02:08:17;;;;;;;6.82;2.88;;;16.40;99.90;;;;;;5063822;28;20097;-81
2022/06/26 02:13:37;;;;;;;4.60;2.42;;;16.40;99.90;;;;;;5063967;28;20147;-81
2022/06/26 02:16:07;;;;;;;4.57;2.13;;;16.40;99.90;;;;;;5061653;28;20510;-81
2022/06/26 02:18:33;;;;;;;5.78;2.70;;;16.40;99.90;;;;;;5064036;28;20041;-81
2022/06/26 02:21:00;;;;;;;11.07;4.57;;;16.40;99.90;;;;;;5065513;28;20044;-81
2022/06/26 02:23:26;;;;;;;6.85;2.75;;;16.40;99.90;;;;;;5062144;28;20410;-81
2022/06/26 02:25:52;;;;;;;9.80;3.55;;;16.40;99.90;;;;;;5062846;28;20454;-81
2022/06/26 02:28:18;;;;;;;5.03;2.15;;;16.40;99.90;;;;;;5061963;28;20032;-81
2022/06/26 02:30:44;;;;;;;5.45;2.55;;;16.40;99.90;;;;;;5062426;28;20049;-81
2022/06/26 02:33:11;;;;;;;7.65;2.20;;;16.40;99.90;;;;;;5063160;28;20029;-81
2022/06/26 02:35:37;;;;;;;6.00;2.10;;;16.40;99.90;;;;;;5061477;28;20047;-81
2022/06/26 02:38:03;;;;;;;6.25;2.17;;;16.40;99.90;;;;;;5064016;28;20048;-81
2022/06/26 02:40:31;;;;;;;6.13;2.58;;;16.40;99.90;;;;;;5063765;28;20506;-81
2022/06/26 02:42:57;;;;;;;8.43;3.63;;;16.30;99.90;;;;;;5061570;28;20103;-81
2022/06/26 02:45:23;;;;;;;8.00;2.50;;;16.40;99.90;;;;;;5062106;28;20048;-81
2022/06/26 02:47:49;;;;;;;4.85;1.92;;;16.30;99.90;;;;;;5062883;28;20084;-81
2022/06/26 02:50:15;;;;;;;6.43;3.17;;;16.30;99.90;;;;;;5060637;28;20043;-81
2022/06/26 02:52:42;;;;;;;5.82;3.20;;;16.30;99.90;;;;;;5062301;28;20124;-81
2022/06/26 02:55:08;;;;;;;10.80;2.30;;;16.30;99.90;;;;;;5064431;28;20776;-81
2022/06/26 02:57:34;;;;;;;9.55;3.47;;;16.30;99.90;;;;;;5059889;28;20040;-82
2022/06/26 03:00:00;;;;;;;6.35;2.35;;;16.30;99.90;;;;;;5077434;28;20045;-81
2022/06/26 03:02:26;;;;;;;20.20;2.88;;;16.30;99.90;;;;;;5078199;28;20037;-81
2022/06/26 03:04:53;;;;;;;5.28;2.28;;;16.30;99.90;;;;;;5065137;28;20052;-81
2022/06/26 03:07:19;;;;;;;6.65;2.25;;;16.30;99.90;;;;;;5064974;28;20048;-81
2022/06/26 03:09:45;;;;;;;14.32;2.83;;;16.20;99.90;;;;;;5065438;28;20670;-81
2022/06/26 03:12:11;;;;;;;5.93;2.65;;;16.20;99.90;;;;;;5067080;28;21055;-81
2022/06/26 03:14:37;;;;;;;8.05;2.10;;;16.20;99.90;;;;;;5064850;28;20094;-81
2022/06/26 03:17:04;;;;;;;11.18;2.60;;;16.20;99.90;;;;;;5066647;28;20041;-81
2022/06/26 03:19:30;;;;;;;6.80;2.17;;;16.10;99.90;;;;;;5067147;28;20754;-81
2022/06/26 03:21:56;;;;;;;8.20;3.20;;;16.10;99.90;;;;;;5067917;28;20875;-81
2022/06/26 03:24:21;;;;;;;9.02;2.60;;;16.10;99.90;;;;;;5068221;28;20044;-81
2022/06/26 03:26:47;;;;;;;11.85;3.78;;;16.10;99.90;;;;;;5063533;28;20768;-81
2022/06/26 03:29:13;;;;;;;7.00;3.33;;;16.10;99.90;;;;;;5065596;28;20041;-81
2022/06/26 03:31:39;;;;;;;3.70;2.22;;;16.00;99.90;;;;;;5064914;28;20039;-82
2022/06/26 03:34:05;;;;;;;10.63;3.75;;;16.00;99.90;;;;;;5066174;28;20049;-82
2022/06/26 03:36:32;;;;;;;18.83;3.60;;;16.00;99.90;;;;;;5080618;27;20055;-81
2022/06/26 03:38:57;;;;;;;7.68;2.28;;;16.00;99.90;;;;;;5081893;28;20040;-81
2022/06/26 03:41:23;;;;;;;14.88;3.15;;;15.90;99.90;;;;;;5066883;28;20548;-81
2022/06/26 03:43:50;;;;;;;5.47;2.42;;;15.90;99.90;;;;;;5063903;28;20593;-81
2022/06/26 03:46:16;;;;;;;7.70;3.15;;;15.90;99.90;;;;;;5064525;28;20621;-81
2022/06/26 03:48:42;;;;;;;6.82;2.80;;;15.90;99.90;;;;;;5065783;28;20040;-81
2022/06/26 03:51:08;;;;;;;8.93;2.88;;;15.90;99.90;;;;;;5065394;28;20052;-81
2022/06/26 03:53:35;;;;;;;9.27;2.95;;;15.80;99.90;;;;;;5067390;28;20055;-81
2022/06/26 03:56:02;;;;;;;8.98;2.53;;;15.90;99.90;;;;;;5048077;28;20041;-81
2022/06/26 03:58:28;;;;;;;10.32;2.67;;;15.80;99.90;;;;;;5065408;28;20041;-81
2022/06/26 04:00:54;;;;;;;9.00;2.78;;;15.80;99.90;;;;;;5078968;28;20060;-81
2022/06/26 04:03:20;;;;;;;17.77;3.40;;;15.80;99.90;;;;;;5065043;28;20045;-80
2022/06/26 04:05:46;;;;;;;10.18;2.65;;;15.80;99.90;;;;;;5066125;28;20865;-81
2022/06/26 04:08:12;;;;;;;10.00;2.22;;;15.80;99.90;;;;;;5065022;28;20650;-81
2022/06/26 04:10:38;;;;;;;5.55;2.22;;;15.70;99.90;;;;;;5065711;28;20596;-80
2022/06/26 04:13:06;;;;;;;9.32;2.63;;;15.80;99.90;;;;;;5065523;28;20080;-80
2022/06/26 04:15:34;;;;;;;7.03;2.70;;;15.80;99.90;;;;;;5065807;28;20041;-81
2022/06/26 04:18:00;;;;;;;7.60;2.67;;;15.80;99.90;;;;;;5066827;28;20040;-80
2022/06/26 04:20:26;;;;;;;14.07;3.75;;;15.80;99.90;;;;;;5066175;28;20048;-81
2022/06/26 04:22:58;;;;;;;10.38;2.95;;;15.80;99.90;;;;;;5066112;28;20052;-81
2022/06/26 04:25:25;;;;;;;9.95;3.35;;;15.80;99.90;;;;;;5080920;28;20041;-81
2022/06/26 04:27:51;;;;;;;7.82;2.20;;;15.80;99.90;;;;;;5047881;28;20856;-81
2022/06/26 04:30:17;;;;;;;7.28;2.55;;;15.80;99.90;;;;;;5063171;28;20173;-81
2022/06/26 04:32:43;;;;;;;7.07;2.58;;;15.80;99.90;;;;;;5065196;28;20146;-81
2022/06/26 04:35:10;;;;;;;9.57;2.33;;;15.90;99.90;;;;;;5065836;28;20040;-81
2022/06/26 04:37:37;;;;;;;9.55;2.55;;;15.80;99.90;;;;;;5066228;28;20033;-81
2022/06/26 04:40:05;;;;;;;7.50;2.65;;;15.90;99.90;;;;;;5063525;28;20479;-81
2022/06/26 04:42:31;;;;;;;7.43;2.50;;;15.90;99.90;;;;;;5063164;28;20072;-81
2022/06/26 04:44:56;;;;;;;8.65;2.83;;;15.90;99.90;;;;;;5064477;28;20049;-81
2022/06/26 04:47:22;;;;;;;12.77;3.25;;;15.90;99.90;;;;;;5065367;28;20081;-82
2022/06/26 04:49:48;;;;;;;11.05;2.15;;;15.90;99.90;;;;;;5063338;28;20128;-81
2022/06/26 04:52:15;;;;;;;8.00;3.30;;;15.90;99.90;;;;;;5065037;28;20727;-81
2022/06/26 04:54:44;;;;;;;6.25;2.53;;;16.00;99.90;;;;;;5064139;28;20041;-81
2022/06/26 04:57:11;;;;;;;12.60;4.05;;;16.00;99.90;;;;;;5063668;28;20841;-81
2022/06/26 04:59:37;;;;;;;22.50;4.35;;;16.00;99.90;;;;;;5062440;28;20605;-81
2022/06/26 05:02:04;;;;;;;12.38;4.32;;;16.00;99.90;;;;;;5064556;28;20052;-81
2022/06/26 05:04:30;;;;;;;13.88;3.45;;;15.90;99.90;;;;;;5063450;28;20572;-80
2022/06/26 05:06:56;;;;;;;6.00;2.95;;;16.00;99.90;;;;;;5064409;28;20040;-81
2022/06/26 05:09:22;;;;;;;5.50;2.40;;;16.00;99.90;;;;;;5065085;28;20549;-79
2022/06/26 05:11:48;;;;;;;9.55;3.03;;;16.00;99.90;;;;;;5064309;28;20059;-81
2022/06/26 05:14:15;;;;;;;8.65;3.42;;;16.00;99.90;;;;;;5063526;28;20049;-81
2022/06/26 05:16:41;;;;;;;11.63;3.15;;;16.00;99.90;;;;;;5063645;28;20040;-81
2022/06/26 05:19:07;;;;;;;17.05;3.03;;;16.00;99.90;;;;;;5065184;28;20045;-81
2022/06/26 05:21:33;;;;;;;9.35;2.72;;;16.00;99.90;;;;;;5062759;28;20099;-81
2022/06/26 05:23:59;;;;;;;9.45;2.33;;;16.10;99.90;;;;;;5063770;28;20049;-81
2022/06/26 05:26:25;;;;;;;7.88;2.97;;;16.10;99.90;;;;;;5079548;28;20582;-81
2022/06/26 05:28:51;;;;;;;10.32;3.58;;;16.10;99.90;;;;;;5064951;28;20059;-81
2022/06/26 05:31:17;;;;;;;8.20;3.47;;;16.10;99.90;;;;;;5063920;28;20037;-81
2022/06/26 05:33:43;;;;;;;8.52;3.00;;;16.10;99.90;;;;;;5079153;28;20037;-82
2022/06/26 05:36:09;;;;;;;5.75;2.47;;;16.20;99.90;;;;;;5065343;28;20518;-81
2022/06/26 05:38:35;;;;;;;6.90;2.45;;;16.20;99.90;;;;;;5077851;28;20040;-81
2022/06/26 05:41:02;;;;;;;7.93;2.72;;;16.20;99.90;;;;;;5063198;28;20053;-81
2022/06/26 05:43:27;;;;;;;6.55;2.25;;;16.30;99.90;;;;;;5064692;28;20131;-81
2022/06/26 05:45:53;;;;;;;8.48;2.70;;;16.30;99.90;;;;;;5063022;28;20049;-81
2022/06/26 05:48:19;;;;;;;6.25;2.55;;;16.30;99.90;;;;;;5066997;28;20055;-82
2022/06/26 05:50:45;;;;;;;6.82;2.58;;;16.30;99.90;;;;;;5063892;28;20048;-82
2022/06/26 05:53:11;;;;;;;17.63;3.28;;;16.30;99.90;;;;;;5081528;28;20033;-82
2022/06/26 05:55:38;;;;;;;24.20;3.97;;;16.30;99.90;;;;;;5065234;28;20037;-81
2022/06/26 05:58:05;;;;;;;4.45;2.30;;;16.30;99.90;;;;;;5048465;28;20048;-81
2022/06/26 06:00:32;;;;;;;6.95;3.05;;;16.30;99.90;;;;;;5063704;28;20114;-81
2022/06/26 06:02:58;;;;;;;7.32;2.65;;;16.40;99.90;;;;;;5064028;28;20044;-81
2022/06/26 06:05:27;;;;;;;7.72;3.28;;;16.40;99.90;;;;;;5065504;28;20413;-82
2022/06/26 06:07:54;;;;;;;10.75;2.65;;;16.40;99.90;;;;;;5063911;28;20051;-82
2022/06/26 06:10:21;;;;;;;5.78;2.88;;;16.50;99.90;;;;;;5062480;28;20482;-81
2022/06/26 06:12:47;;;;;;;13.73;3.28;;;16.50;99.90;;;;;;5062485;28;20643;-82
2022/06/26 06:15:13;;;;;;;5.43;2.10;;;16.50;99.90;;;;;;5061774;28;20102;-81
2022/06/26 06:17:42;;;;;;;3.65;2.60;;;16.50;99.90;;;;;;5061607;28;20045;-80
2022/06/26 06:20:12;;;;;;;11.40;2.63;;;16.60;99.90;;;;;;5060847;28;20068;-81
2022/06/26 06:22:44;;;;;;;6.88;2.42;;;16.60;99.90;;;;;;5062569;28;20041;-81
2022/06/26 06:25:10;;;;;;;9.90;3.28;;;16.70;99.90;;;;;;5061629;28;20045;-82
2022/06/26 06:27:37;;;;;;;7.85;2.53;;;16.70;99.90;;;;;;5065246;28;20044;-81
2022/06/26 06:30:05;;;;;;;6.82;2.47;;;16.80;99.90;;;;;;5062182;28;20142;-81
2022/06/26 06:32:31;;;;;;;7.68;2.00;;;16.80;99.90;;;;;;5062536;28;20112;-81
2022/06/26 06:34:57;;;;;;;11.80;2.83;;;16.90;99.90;;;;;;5060088;28;20558;-81
2022/06/26 06:37:23;;;;;;;9.23;2.22;;;16.90;99.90;;;;;;5063173;28;20064;-81
2022/06/26 06:39:48;;;;;;;8.65;3.35;;;17.00;99.90;;;;;;5063124;28;20430;-81
2022/06/26 06:42:14;;;;;;;7.32;3.83;;;17.00;99.90;;;;;;5059973;28;20079;-81
2022/06/26 06:44:40;;;;;;;6.13;2.13;;;17.00;99.90;;;;;;5063378;28;20053;-82
2022/06/26 06:47:06;;;;;;;8.98;2.13;;;17.00;99.90;;;;;;5077864;28;20083;-82
2022/06/26 06:49:33;;;;;;;5.93;2.80;;;17.00;99.90;;;;;;5061061;28;20124;-81
2022/06/26 06:51:58;;;;;;;11.52;3.28;;;17.00;99.90;;;;;;5061852;28;20427;-82
2022/06/26 06:54:25;;;;;;;9.05;2.05;;;17.00;99.90;;;;;;5062931;28;20052;-81
2022/06/26 06:56:51;;;;;;;6.78;2.47;;;17.00;99.90;;;;;;5062351;28;20071;-81
2022/06/26 06:59:17;;;;;;;12.63;3.17;;;17.00;99.90;;;;;;5060292;28;20632;-81
2022/06/26 07:01:43;;;;;;;6.68;2.22;;;17.00;99.90;;;;;;5062194;28;20041;-81
2022/06/26 07:04:09;;;;;;;11.48;3.17;;;17.00;99.90;;;;;;5061488;28;20037;-81
2022/06/26 07:06:35;;;;;;;9.27;2.88;;;17.10;99.90;;;;;;5063331;28;20044;-81
2022/06/26 07:09:01;;;;;;;3.33;1.70;;;17.10;99.90;;;;;;5062950;28;20041;-81
2022/06/26 07:11:26;;;;;;;7.30;2.38;;;17.20;99.90;;;;;;5061452;28;20124;-82
2022/06/26 07:13:52;;;;;;;8.55;2.35;;;17.20;99.90;;;;;;5061121;28;20414;-80
2022/06/26 07:16:18;;;;;;;3.88;2.25;;;17.30;99.90;;;;;;5062047;28;20064;-81
2022/06/26 07:18:44;;;;;;;6.22;1.98;;;17.30;99.90;;;;;;5061228;28;20863;-82
2022/06/26 07:21:09;;;;;;;3.22;1.80;;;17.30;99.90;;;;;;5061843;28;20053;-81
2022/06/26 07:23:35;;;;;;;9.15;2.15;;;17.40;99.90;;;;;;5061280;28;20037;-84
2022/06/26 07:26:02;;;;;;;10.50;2.80;;;17.40;99.90;;;;;;5061028;28;20041;-90
2022/06/26 07:28:28;;;;;;;8.75;1.73;;;17.40;99.90;;;;;;5070852;28;20854;-87
2022/06/26 07:30:53;;;;;;;7.38;1.48;;;17.50;99.90;;;;;;5047243;28;20037;-85
2022/06/26 07:36:04;;;;;;;10.63;3.22;;;17.60;99.90;;;;;;5065855;28;20076;-84
2022/06/26 07:38:30;;;;;;;5.63;1.70;;;17.60;99.90;;;;;;5061247;28;20632;-75
2022/06/26 07:40:56;;;;;;;5.18;1.67;;;17.70;99.90;;;;;;5062187;28;20622;-75
2022/06/26 07:43:22;;;;;;;4.18;1.60;;;17.80;99.90;;;;;;5063920;28;20061;-75
2022/06/26 07:45:49;;;;;;;9.43;2.28;;;17.80;99.90;;;;;;5063319;28;20044;-78
2022/06/26 07:48:14;;;;;;;6.30;1.40;;;17.90;99.90;;;;;;5066183;28;20044;-77
2022/06/26 07:50:41;;;;;;;7.30;3.42;;;17.90;99.90;;;;;;5065994;28;20040;-78
2022/06/26 07:53:06;;;;;;;5.97;1.15;;;18.00;99.90;;;;;;5066990;28;20032;-77
2022/06/26 07:55:32;;;;;;;9.38;3.15;;;18.00;99.90;;;;;;5065726;28;20037;-77
2022/06/26 07:57:58;;;;;;;6.10;1.38;;;18.00;99.90;;;;;;5065725;28;20041;-77
2022/06/26 08:00:24;;;;;;;3.78;1.50;;;18.10;99.90;;;;;;5065561;28;20041;-77
2022/06/26 08:02:50;;;;;;;4.70;1.20;;;18.20;99.90;;;;;;5079786;28;20040;-77
2022/06/26 08:05:16;;;;;;;4.75;1.30;;;18.20;99.90;;;;;;5067275;28;20033;-77
2022/06/26 08:07:41;;;;;;;5.78;1.50;;;18.20;99.90;;;;;;5062962;28;20044;-77
2022/06/26 08:10:08;;;;;;;5.22;1.33;;;18.30;99.90;;;;;;5065439;28;20036;-77
2022/06/26 08:12:33;;;;;;;7.10;1.80;;;18.30;99.90;;;;;;5065542;28;20032;-77
2022/06/26 08:14:59;;;;;;;4.65;1.00;;;18.30;99.90;;;;;;5064714;28;20464;-77
2022/06/26 08:17:25;;;;;;;8.88;1.55;;;18.30;99.90;;;;;;5065288;28;20049;-77
2022/06/26 08:19:51;;;;;;;5.85;1.98;;;18.30;99.90;;;;;;5062955;28;20055;-76
2022/06/26 08:22:17;;;;;;;5.88;1.63;;;18.30;99.90;;;;;;5064779;28;20140;-77
2022/06/26 08:24:42;;;;;;;4.07;1.20;;;18.30;99.90;;;;;;5065608;28;20458;-76
2022/06/26 08:27:09;;;;;;;4.80;1.58;;;18.30;99.90;;;;;;5066296;28;20045;-77
2022/06/26 08:29:35;;;;;;;4.78;1.40;;;18.30;99.90;;;;;;5064177;28;20128;-77
2022/06/26 08:32:01;;;;;;;6.00;1.55;;;18.30;99.90;;;;;;5063845;28;20126;-77
2022/06/26 08:34:27;;;;;;;3.25;2.00;;;18.30;99.90;;;;;;5063876;28;20525;-77
2022/06/26 08:36:54;;;;;;;4.88;1.60;;;18.30;99.90;;;;;;5062438;28;20044;-76
2022/06/26 08:39:20;;;;;;;4.18;1.65;;;18.30;99.90;;;;;;5063874;28;20060;-78
2022/06/26 08:41:57;;;;;;;7.05;1.20;;;18.30;99.90;;;;;;5091232;22;20410;-85
2022/06/26 08:44:47;;;;;;;9.50;2.30;;;18.20;99.90;;;;;;5050413;28;20045;-84
2022/06/26 08:47:30;;;;;;;;;;;;;;;;;;;;;
2022/06/26 08:50:14;;;;;;;5.68;2.00;;;18.30;99.90;;;;;;5068764;28;43652;-87
2022/06/26 08:53:02;;;;;;;;;;;;;;;;;;;;;
2022/06/26 08:56:07;;;;;;;4.75;1.10;;;18.10;99.90;;;;;;5069899;28;39559;-85
2022/06/26 08:59:01;;;;;;;6.28;1.85;;;18.40;99.90;;;;;;5058144;28;20065;-85
2022/06/26 09:01:53;;;;;;;;;;;;;;;;;;;;;
2022/06/26 09:04:32;;;;;;;7.22;1.00;;;18.30;99.90;;;;;;5069716;28;39915;-84
2022/06/26 09:07:10;;;;;;;3.15;1.08;;;18.40;99.90;;;;;;5060927;28;20508;-84
2022/06/26 09:09:40;;;;;;;2.72;1.20;;;18.50;99.90;;;;;;5060146;28;20052;-85
2022/06/26 09:12:52;;;;;;;6.40;2.08;;;18.30;99.90;;;;;;5064416;28;20128;-85
2022/06/26 09:15:28;;;;;;;8.23;3.23;;;18.60;99.90;;;;;;5083755;28;20133;-85
2022/06/26 09:18:19;;;;;;;7.40;2.00;;;18.70;99.90;;;;;;5073692;28;20041;-86
2022/06/26 09:21:06;;;;;;;3.22;1.40;;;18.70;99.90;;;;;;5086586;28;20051;-85
2022/06/26 09:23:41;;;;;;;4.82;2.10;;;18.80;99.90;;;;;;5070779;28;20102;-85
2022/06/26 09:26:43;;;;;;;2.78;1.33;;;18.90;99.90;;;;;;5078605;28;20052;-86
2022/06/26 09:29:37;;;;;;;;;;;;;;;;;;;;;
2022/06/26 09:32:27;;;;;;;5.43;2.47;;;19.20;99.90;;;;;;5088928;28;43757;-86
2022/06/26 09:35:27;;;;;;;3.08;1.33;;;19.10;99.90;;;;;;5068529;28;20044;-86
2022/06/26 09:38:28;;;;;;;4.90;1.70;;;19.10;99.90;;;;;;5058573;28;20052;-85
2022/06/26 09:41:11;;;;;;;4.95;2.67;;;19.00;99.90;;;;;;5049926;28;20045;-86
2022/06/26 09:44:19;;;;;;;6.80;1.58;;;19.20;99.90;;;;;;5050374;28;20632;-87
2022/06/26 09:46:54;;;;;;;3.83;1.10;;;19.10;99.90;;;;;;5032767;28;21767;-86
2022/06/26 09:49:44;;;;;;;5.97;2.08;;;19.10;99.90;;;;;;5027667;28;20740;-86
2022/06/26 09:52:32;;;;;;;3.28;1.15;;;19.20;99.90;;;;;;5035082;28;20050;-85
2022/06/26 09:55:03;;;;;;;3.92;1.50;;;19.40;99.90;;;;;;5044234;28;20562;-84
2022/06/26 09:57:34;;;;;;;1.42;1.00;;;19.20;99.90;;;;;;5028100;28;20056;-86
2022/06/26 10:00:13;;;;;;;2.05;0.95;;;19.20;99.90;;;;;;5046431;28;20049;-85
2022/06/26 10:09:02;;;;;;;7.38;1.13;;;19.30;99.90;;;;;;5028938;28;20557;-81
2022/06/26 10:11:47;;;;;;;3.28;1.42;;;19.20;99.90;;;;;;5022254;28;20076;-81
2022/06/26 10:14:50;;;;;;;4.07;0.82;;;19.20;99.90;;;;;;5029069;28;20575;-80
2022/06/26 10:17:56;;;;;;;4.13;1.40;;;19.20;99.90;;;;;;4951848;28;20262;-81
2022/06/26 10:23:54;;;;;;;4.95;1.08;;;19.10;99.90;;;;;;5026427;28;20073;-81
2022/06/26 10:26:36;;;;;;;3.75;1.48;;;19.20;99.90;;;;;;5033012;28;20042;-81
2022/06/26 10:29:10;;;;;;;3.83;1.42;;;19.30;99.90;;;;;;5025124;28;20113;-81
2022/06/26 10:31:54;;;;;;;2.85;1.10;;;19.30;99.90;;;;;;5024737;28;20347;-82
2022/06/26 10:34:38;;;;;;;3.53;2.40;;;19.30;99.90;;;;;;5025721;28;20469;-81
2022/06/26 10:37:35;;;;;;;3.60;1.25;;;19.30;99.90;;;;;;5040386;28;20046;-82
2022/06/26 10:40:14;;;;;;;6.63;2.33;;;19.30;99.80;;;;;;5021311;28;20122;-82
2022/06/26 10:42:57;;;;;;;6.80;2.05;;;19.20;99.80;;;;;;5035572;28;20466;-81
2022/06/26 10:49:30;;;;;;;2.97;1.77;;;19.60;99.50;;;;;;5044716;28;20043;-82
2022/06/26 10:52:06;;;;;;;3.53;1.30;;;19.40;99.20;;;;;;5031588;28;20978;-82
2022/06/26 10:55:02;;;;;;;2.47;1.10;;;19.60;99.40;;;;;;5045128;28;22211;-82
2022/06/26 10:58:00;;;;;;;3.13;1.75;;;20.00;99.20;;;;;;5041166;28;20057;-80
2022/06/26 11:00:58;;;;;;;10.55;1.80;;;20.20;98.90;;;;;;5040814;28;20041;-83
2022/06/26 11:03:45;;;;;;;2.20;1.20;;;20.20;98.70;;;;;;5044945;28;20188;-82
2022/06/26 11:06:29;;;;;;;;;;;;;;;;;;;;;
2022/06/26 11:08:56;;;;;;;2.05;1.10;;;20.40;98.40;;;;;;5045924;28;43733;-82
2022/06/26 11:11:43;;;;;;;3.70;1.80;;;20.40;98.40;;;;;;5045563;28;20468;-82
2022/06/26 11:14:10;;;;;;;3.45;1.30;;;20.60;98.10;;;;;;5047746;28;20041;-82
2022/06/26 11:16:41;;;;;;;7.53;1.92;;;20.60;98.10;;;;;;5043848;28;20522;-80
2022/06/26 11:22:41;;;;;;;7.20;1.48;;;20.30;97.70;;;;;;5042653;28;20520;-81
2022/06/26 11:25:25;;;;;;;6.47;1.20;;;20.90;97.80;;;;;;5046344;28;20392;-80
2022/06/26 11:27:57;;;;;;;3.72;1.27;;;20.90;97.50;;;;;;5048697;28;20053;-81
2022/06/26 11:30:32;;;;;;;9.90;2.17;;;21.10;97.30;;;;;;5048928;28;20062;-82
2022/06/26 11:33:19;;;;;;;2.45;1.15;;;21.30;97.10;;;;;;5054431;28;20079;-81
2022/06/26 11:36:15;;;;;;;3.03;1.02;;;21.40;96.70;;;;;;5064154;28;20045;-81
2022/06/26 11:39:11;;;;;;;3.53;0.82;;;21.50;96.20;;;;;;5037170;28;20077;-82
2022/06/26 11:42:01;;;;;;;2.95;1.33;;;21.60;95.80;;;;;;5064435;28;20128;-81
2022/06/26 11:44:30;;;;;;;8.88;1.77;;;21.50;95.50;;;;;;5047660;28;20093;-83
2022/06/26 11:47:07;;;;;;;2.95;1.10;;;21.40;95.20;;;;;;5063486;28;20064;-80
2022/06/26 11:49:55;;;;;;;4.55;1.10;;;21.30;95.10;;;;;;5045784;28;20049;-82
2022/06/26 11:53:19;;;;;;;4.82;1.10;;;21.40;95.00;;;;;;5035795;28;20068;-78
2022/06/26 11:56:07;;;;;;;3.80;1.35;;;21.70;94.80;;;;;;5062654;28;20053;-79
2022/06/26 11:59:11;;;;;;;2.53;1.88;;;21.90;94.50;;;;;;5045503;28;20049;-79
2022/06/26 12:01:54;;;;;;;4.20;1.50;;;21.40;94.30;;;;;;5046732;28;20629;-80
2022/06/26 12:04:30;;;;;;;4.10;1.17;;;22.10;94.40;;;;;;5064402;28;20107;-82
2022/06/26 12:07:13;;;;;;;4.68;1.52;;;22.40;94.20;;;;;;5046554;28;20216;-81
2022/06/26 12:10:07;;;;;;;6.15;1.27;;;22.40;94.10;;;;;;5045920;28;20053;-81
2022/06/26 12:12:36;;;;;;;2.20;1.00;;;22.60;93.70;;;;;;5039268;28;20115;-81
2022/06/26 12:15:25;;;;;;;;;;;;;;;;;;;;;
2022/06/26 12:18:15;;;;;;;7.65;2.40;;;22.60;93.20;;;;;;5046738;28;40421;-81
2022/06/26 12:20:57;;;;;;;2.30;1.58;;;22.60;93.00;;;;;;5046048;28;20908;-82
2022/06/26 12:23:41;;;;;;;2.10;1.17;;;22.60;92.90;;;;;;5046733;28;20038;-80
2022/06/26 12:26:32;;;;;;;3.88;1.35;;;22.70;92.70;;;;;;5047000;28;20056;-81
2022/06/26 12:29:18;;;;;;;3.10;1.40;;;;;;;;;;5046919;28;20036;-80
2022/06/26 12:31:50;;;;;;;3.58;0.90;;;22.60;92.20;;;;;;5046598;28;20045;-80
2022/06/26 12:34:32;;;;;;;3.10;1.17;;;22.50;92.20;;;;;;5048493;28;20645;-80
2022/06/26 12:37:01;;;;;;;;;;;;;;;;;;5045882;28;20096;-80
2022/06/26 12:39:53;;;;;;;3.45;1.30;;;22.30;91.90;;;;;;5046054;28;19921;-80
2022/06/26 12:42:25;;;;;;;2.20;1.02;;;22.10;91.30;;;;;;5046316;28;20182;-80
2022/06/26 12:45:06;;;;;;;3.55;1.25;;;22.10;91.40;;;;;;5049434;28;20159;-80
2022/06/26 12:47:41;;;;;;;5.60;1.55;;;22.20;91.40;;;;;;5046282;28;21021;-80
2022/06/26 12:50:43;;;;;;;;;;;;;;;;;;;;;
2022/06/26 12:53:19;;;;;;;3.58;0.90;;;22.40;91.20;;;;;;5048867;28;43386;-80
2022/06/26 12:55:50;;;;;;;2.15;1.08;;;22.40;91.20;;;;;;5059335;28;20052;-81
2022/06/26 12:58:24;;;;;;;1.75;1.10;;;22.80;91.50;;;;;;5057637;28;20045;-82
2022/06/26 13:01:15;;;;;;;1.83;0.90;;;22.70;91.00;;;;;;5075263;28;20108;-83
2022/06/26 13:03:58;;;;;;;4.43;1.30;;;22.90;91.00;;;;;;5058544;28;20142;-84
2022/06/26 13:06:54;;;;;;;6.10;1.60;;;23.10;91.20;;;;;;5050985;28;20622;-86
2022/06/26 13:09:58;;;;;;;3.08;1.23;;;23.40;90.80;;;;;;5070717;28;20091;-87
2022/06/26 13:16:00;;;;;;;3.60;1.42;;;23.40;90.50;;;;;;5052496;28;20053;-86
2022/06/26 13:19:12;;;;;;;;;;;;;;;;;;;;;
2022/06/26 13:22:18;;;;;;;3.25;1.83;;;23.50;90.20;;;;;;5050200;28;40509;-86
2022/06/26 13:28:08;;;;;;;3.00;1.05;;;23.40;89.20;;;;;;5050192;28;20046;-85
2022/06/26 13:31:29;;;;;;;2.85;1.20;;;23.60;89.20;;;;;;5007665;28;20528;-87
2022/06/26 13:34:18;;;;;;;2.63;1.20;;;23.70;88.00;;;;;;4986341;28;20101;-86
2022/06/26 13:37:22;;;;;;;;;;;;;;;;;;;;;
2022/06/26 13:40:22;;;;;;;3.55;0.90;;;23.90;87.20;;;;;;5004507;28;43173;-86
2022/06/26 13:43:29;;;;;;;4.45;0.85;;;23.80;87.00;;;;;;4996158;28;20061;-85
2022/06/26 13:46:29;;;;;;;4.55;1.00;;;24.00;86.90;;;;;;4996322;28;21264;-85
2022/06/26 13:49:08;;;;;;;2.65;2.00;;;24.00;86.40;;;;;;4986897;28;20112;-86
2022/06/26 13:55:18;;;;;;;2.20;1.00;;;24.00;85.90;;;;;;4997183;28;20467;-85
2022/06/26 14:04:50;;;;;;;5.75;1.00;;;24.20;84.80;;;;;;5044662;28;20064;-86
2022/06/26 14:11:17;;;;;;;3.03;1.10;;;24.00;84.70;;;;;;5045096;28;20064;-86